sensor_id;sensor_type;location;lat;lon;timestamp;P1;durP1;ratioP1;P2;durP2;ratioP2
70818;SDS011;58439;51.046;13.692;2022-11-11T00:00:31;10.60;;;3.05;;
70818;SDS011;58439;51.046;13.692;2022-11-11T00:03:18;9.73;;;2.72;;
70818;SDS011;58439;51.046;13.692;2022-11-11T00:06:10;9.82;;;3.33;;
70818;SDS011;58439;51.046;13.692;2022-11-11T00:08:59;11.65;;;3.28;;
70818;SDS011;58439;51.046;13.692;2022-11-11T00:12:10;10.05;;;3.22;;
70818;SDS011;58439;51.046;13.692;2022-11-11T00:14:55;11.55;;;3.50;;
70818;SDS011;58439;51.046;13.692;2022-11-11T00:17:41;8.38;;;3.35;;
70818;SDS011;58439;51.046;13.692;2022-11-11T00:20:46;11.93;;;3.78;;
70818;SDS011;58439;51.046;13.692;2022-11-11T00:23:51;14.48;;;4.05;;
70818;SDS011;58439;51.046;13.692;2022-11-11T00:27:07;9.77;;;3.50;;
70818;SDS011;58439;51.046;13.692;2022-11-11T00:30:20;18.45;;;4.38;;
70818;SDS011;58439;51.046;13.692;2022-11-11T00:33:06;13.25;;;4.25;;
70818;SDS011;58439;51.046;13.692;2022-11-11T00:35:54;11.27;;;4.50;;
70818;SDS011;58439;51.046;13.692;2022-11-11T00:38:41;16.95;;;5.00;;
70818;SDS011;58439;51.046;13.692;2022-11-11T00:41:34;13.32;;;4.70;;
70818;SDS011;58439;51.046;13.692;2022-11-11T00:44:23;13.02;;;5.10;;
70818;SDS011;58439;51.046;13.692;2022-11-11T00:50:54;12.85;;;4.70;;
70818;SDS011;58439;51.046;13.692;2022-11-11T00:53:51;13.23;;;5.55;;
70818;SDS011;58439;51.046;13.692;2022-11-11T00:56:49;16.98;;;4.80;;
70818;SDS011;58439;51.046;13.692;2022-11-11T00:59:40;8.95;;;4.80;;
70818;SDS011;58439;51.046;13.692;2022-11-11T01:02:39;12.55;;;4.38;;
70818;SDS011;58439;51.046;13.692;2022-11-11T01:22:27;15.77;;;5.20;;
70818;SDS011;58439;51.046;13.692;2022-11-11T01:42:47;20.13;;;5.85;;
70818;SDS011;58439;51.046;13.692;2022-11-11T01:45:59;10.07;;;4.97;;
70818;SDS011;58439;51.046;13.692;2022-11-11T01:48:49;12.90;;;5.68;;
70818;SDS011;58439;51.046;13.692;2022-11-11T01:52:12;16.50;;;5.82;;
70818;SDS011;58439;51.046;13.692;2022-11-11T01:55:08;12.73;;;5.63;;
70818;SDS011;58439;51.046;13.692;2022-11-11T01:58:04;15.20;;;5.43;;
70818;SDS011;58439;51.046;13.692;2022-11-11T02:00:55;15.43;;;5.85;;
70818;SDS011;58439;51.046;13.692;2022-11-11T02:04:10;12.68;;;6.00;;
70818;SDS011;58439;51.046;13.692;2022-11-11T02:07:15;15.13;;;5.70;;
70818;SDS011;58439;51.046;13.692;2022-11-11T02:10:04;13.10;;;5.50;;
70818;SDS011;58439;51.046;13.692;2022-11-11T02:12:53;12.60;;;5.10;;
70818;SDS011;58439;51.046;13.692;2022-11-11T02:15:58;16.33;;;5.65;;
70818;SDS011;58439;51.046;13.692;2022-11-11T02:26:41;12.40;;;4.95;;
70818;SDS011;58439;51.046;13.692;2022-11-11T02:30:30;12.77;;;5.13;;
70818;SDS011;58439;51.046;13.692;2022-11-11T02:34:08;17.10;;;5.45;;
70818;SDS011;58439;51.046;13.692;2022-11-11T02:38:06;12.82;;;5.43;;
70818;SDS011;58439;51.046;13.692;2022-11-11T02:41:04;13.25;;;5.95;;
70818;SDS011;58439;51.046;13.692;2022-11-11T02:44:09;18.38;;;5.93;;
70818;SDS011;58439;51.046;13.692;2022-11-11T02:46:54;16.10;;;6.40;;
70818;SDS011;58439;51.046;13.692;2022-11-11T02:49:41;15.57;;;5.53;;
70818;SDS011;58439;51.046;13.692;2022-11-11T02:52:27;9.68;;;5.15;;
70818;SDS011;58439;51.046;13.692;2022-11-11T02:55:20;18.17;;;5.95;;
70818;SDS011;58439;51.046;13.692;2022-11-11T02:58:10;12.90;;;5.63;;
70818;SDS011;58439;51.046;13.692;2022-11-11T03:00:58;21.95;;;5.82;;
70818;SDS011;58439;51.046;13.692;2022-11-11T03:03:44;18.17;;;5.75;;
70818;SDS011;58439;51.046;13.692;2022-11-11T03:06:30;14.50;;;5.55;;
70818;SDS011;58439;51.046;13.692;2022-11-11T03:09:16;14.07;;;5.20;;
70818;SDS011;58439;51.046;13.692;2022-11-11T03:12:05;17.23;;;4.97;;
70818;SDS011;58439;51.046;13.692;2022-11-11T03:15:14;13.00;;;4.90;;
70818;SDS011;58439;51.046;13.692;2022-11-11T03:32:24;16.05;;;5.40;;
70818;SDS011;58439;51.046;13.692;2022-11-11T03:35:59;19.40;;;5.75;;
70818;SDS011;58439;51.046;13.692;2022-11-11T03:38:45;13.20;;;5.25;;
70818;SDS011;58439;51.046;13.692;2022-11-11T03:41:31;15.00;;;4.95;;
70818;SDS011;58439;51.046;13.692;2022-11-11T03:44:18;9.43;;;4.60;;
70818;SDS011;58439;51.046;13.692;2022-11-11T03:47:04;12.90;;;4.82;;
70818;SDS011;58439;51.046;13.692;2022-11-11T03:49:50;13.88;;;5.10;;
70818;SDS011;58439;51.046;13.692;2022-11-11T03:53:02;16.27;;;5.38;;
70818;SDS011;58439;51.046;13.692;2022-11-11T03:56:32;11.90;;;5.18;;
70818;SDS011;58439;51.046;13.692;2022-11-11T04:00:04;13.88;;;5.13;;
70818;SDS011;58439;51.046;13.692;2022-11-11T04:03:36;11.95;;;5.38;;
70818;SDS011;58439;51.046;13.692;2022-11-11T04:06:54;15.57;;;5.72;;
70818;SDS011;58439;51.046;13.692;2022-11-11T04:10:01;13.68;;;5.82;;
70818;SDS011;58439;51.046;13.692;2022-11-11T04:13:12;15.10;;;5.88;;
70818;SDS011;58439;51.046;13.692;2022-11-11T04:16:17;13.20;;;5.85;;
70818;SDS011;58439;51.046;13.692;2022-11-11T04:19:03;21.13;;;6.53;;
70818;SDS011;58439;51.046;13.692;2022-11-11T04:22:11;16.48;;;5.75;;
70818;SDS011;58439;51.046;13.692;2022-11-11T04:25:05;14.50;;;6.15;;
70818;SDS011;58439;51.046;13.692;2022-11-11T04:28:18;12.55;;;5.22;;
70818;SDS011;58439;51.046;13.692;2022-11-11T04:36:12;15.55;;;6.93;;
70818;SDS011;58439;51.046;13.692;2022-11-11T04:46:06;15.02;;;6.55;;
70818;SDS011;58439;51.046;13.692;2022-11-11T04:49:01;17.85;;;6.47;;
70818;SDS011;58439;51.046;13.692;2022-11-11T04:51:47;15.90;;;6.38;;
70818;SDS011;58439;51.046;13.692;2022-11-11T04:54:52;13.75;;;6.80;;
70818;SDS011;58439;51.046;13.692;2022-11-11T04:58:06;17.88;;;6.78;;
70818;SDS011;58439;51.046;13.692;2022-11-11T05:00:52;13.95;;;7.10;;
70818;SDS011;58439;51.046;13.692;2022-11-11T05:07:28;12.90;;;6.35;;
70818;SDS011;58439;51.046;13.692;2022-11-11T05:10:33;19.02;;;5.88;;
70818;SDS011;58439;51.046;13.692;2022-11-11T05:13:19;14.15;;;6.75;;
70818;SDS011;58439;51.046;13.692;2022-11-11T05:16:24;15.75;;;6.75;;
70818;SDS011;58439;51.046;13.692;2022-11-11T05:19:34;12.82;;;6.22;;
70818;SDS011;58439;51.046;13.692;2022-11-11T05:22:40;11.88;;;6.32;;
70818;SDS011;58439;51.046;13.692;2022-11-11T05:26:32;18.10;;;6.88;;
70818;SDS011;58439;51.046;13.692;2022-11-11T05:29:45;14.77;;;6.57;;
70818;SDS011;58439;51.046;13.692;2022-11-11T05:33:45;12.18;;;5.82;;
70818;SDS011;58439;51.046;13.692;2022-11-11T05:37:02;19.77;;;7.15;;
70818;SDS011;58439;51.046;13.692;2022-11-11T05:40:08;16.02;;;6.50;;
70818;SDS011;58439;51.046;13.692;2022-11-11T05:44:33;18.90;;;6.75;;
70818;SDS011;58439;51.046;13.692;2022-11-11T05:48:36;19.98;;;6.93;;
70818;SDS011;58439;51.046;13.692;2022-11-11T05:51:56;18.70;;;7.07;;
70818;SDS011;58439;51.046;13.692;2022-11-11T05:55:00;15.18;;;7.38;;
70818;SDS011;58439;51.046;13.692;2022-11-11T06:17:00;22.42;;;7.22;;
70818;SDS011;58439;51.046;13.692;2022-11-11T06:20:13;19.83;;;9.40;;
70818;SDS011;58439;51.046;13.692;2022-11-11T06:23:01;21.73;;;8.80;;
70818;SDS011;58439;51.046;13.692;2022-11-11T06:25:55;16.15;;;7.93;;
70818;SDS011;58439;51.046;13.692;2022-11-11T06:28:56;20.63;;;7.63;;
70818;SDS011;58439;51.046;13.692;2022-11-11T06:31:43;19.15;;;8.02;;
70818;SDS011;58439;51.046;13.692;2022-11-11T06:34:30;24.27;;;8.13;;
70818;SDS011;58439;51.046;13.692;2022-11-11T06:37:16;17.45;;;7.10;;
70818;SDS011;58439;51.046;13.692;2022-11-11T06:40:02;16.20;;;7.95;;
70818;SDS011;58439;51.046;13.692;2022-11-11T06:42:48;16.15;;;7.70;;
70818;SDS011;58439;51.046;13.692;2022-11-11T06:45:38;15.48;;;7.80;;
70818;SDS011;58439;51.046;13.692;2022-11-11T06:48:25;16.55;;;7.50;;
70818;SDS011;58439;51.046;13.692;2022-11-11T06:51:16;29.92;;;8.55;;
70818;SDS011;58439;51.046;13.692;2022-11-11T06:54:03;32.15;;;9.80;;
70818;SDS011;58439;51.046;13.692;2022-11-11T06:56:49;46.15;;;12.50;;
70818;SDS011;58439;51.046;13.692;2022-11-11T06:59:37;43.42;;;12.50;;
70818;SDS011;58439;51.046;13.692;2022-11-11T07:02:23;36.08;;;10.43;;
70818;SDS011;58439;51.046;13.692;2022-11-11T07:05:15;24.40;;;8.90;;
70818;SDS011;58439;51.046;13.692;2022-11-11T07:08:01;28.80;;;8.70;;
70818;SDS011;58439;51.046;13.692;2022-11-11T07:10:53;16.98;;;7.65;;
70818;SDS011;58439;51.046;13.692;2022-11-11T07:18:32;21.37;;;8.40;;
70818;SDS011;58439;51.046;13.692;2022-11-11T07:22:26;16.83;;;7.88;;
70818;SDS011;58439;51.046;13.692;2022-11-11T07:25:50;20.63;;;7.57;;
70818;SDS011;58439;51.046;13.692;2022-11-11T07:43:01;17.95;;;7.60;;
70818;SDS011;58439;51.046;13.692;2022-11-11T07:45:47;15.05;;;6.70;;
70818;SDS011;58439;51.046;13.692;2022-11-11T07:48:35;21.23;;;7.65;;
70818;SDS011;58439;51.046;13.692;2022-11-11T07:51:21;16.70;;;7.07;;
70818;SDS011;58439;51.046;13.692;2022-11-11T07:54:08;17.40;;;7.28;;
70818;SDS011;58439;51.046;13.692;2022-11-11T07:57:03;14.52;;;6.88;;
70818;SDS011;58439;51.046;13.692;2022-11-11T08:00:03;17.83;;;6.82;;
70818;SDS011;58439;51.046;13.692;2022-11-11T08:02:51;14.10;;;6.55;;
70818;SDS011;58439;51.046;13.692;2022-11-11T08:05:43;15.43;;;7.18;;
70818;SDS011;58439;51.046;13.692;2022-11-11T08:08:29;20.40;;;7.55;;
70818;SDS011;58439;51.046;13.692;2022-11-11T08:11:16;17.27;;;7.13;;
70818;SDS011;58439;51.046;13.692;2022-11-11T08:14:22;15.68;;;7.10;;
70818;SDS011;58439;51.046;13.692;2022-11-11T08:17:11;13.85;;;6.10;;
70818;SDS011;58439;51.046;13.692;2022-11-11T08:19:59;15.90;;;7.25;;
70818;SDS011;58439;51.046;13.692;2022-11-11T08:22:45;13.00;;;6.97;;
70818;SDS011;58439;51.046;13.692;2022-11-11T08:25:51;19.77;;;7.03;;
70818;SDS011;58439;51.046;13.692;2022-11-11T08:28:37;15.45;;;7.50;;
70818;SDS011;58439;51.046;13.692;2022-11-11T08:31:25;18.83;;;6.40;;
70818;SDS011;58439;51.046;13.692;2022-11-11T08:34:11;13.18;;;6.35;;
70818;SDS011;58439;51.046;13.692;2022-11-11T08:37:00;16.60;;;6.95;;
70818;SDS011;58439;51.046;13.692;2022-11-11T08:40:27;13.18;;;5.72;;
70818;SDS011;58439;51.046;13.692;2022-11-11T08:43:13;12.02;;;5.53;;
70818;SDS011;58439;51.046;13.692;2022-11-11T08:46:00;15.80;;;6.47;;
70818;SDS011;58439;51.046;13.692;2022-11-11T08:48:48;14.48;;;5.82;;
70818;SDS011;58439;51.046;13.692;2022-11-11T08:51:34;19.17;;;5.88;;
70818;SDS011;58439;51.046;13.692;2022-11-11T08:54:31;10.10;;;5.88;;
70818;SDS011;58439;51.046;13.692;2022-11-11T08:57:18;13.85;;;6.07;;
70818;SDS011;58439;51.046;13.692;2022-11-11T09:00:04;11.82;;;5.97;;
70818;SDS011;58439;51.046;13.692;2022-11-11T09:02:52;13.27;;;5.78;;
70818;SDS011;58439;51.046;13.692;2022-11-11T09:05:39;16.00;;;6.20;;
70818;SDS011;58439;51.046;13.692;2022-11-11T09:08:25;18.08;;;6.78;;
70818;SDS011;58439;51.046;13.692;2022-11-11T09:11:11;17.08;;;6.40;;
70818;SDS011;58439;51.046;13.692;2022-11-11T09:13:58;12.73;;;5.25;;
70818;SDS011;58439;51.046;13.692;2022-11-11T09:16:47;12.23;;;5.50;;
70818;SDS011;58439;51.046;13.692;2022-11-11T09:19:34;12.23;;;5.72;;
70818;SDS011;58439;51.046;13.692;2022-11-11T09:22:20;15.32;;;5.45;;
70818;SDS011;58439;51.046;13.692;2022-11-11T09:25:06;19.13;;;6.40;;
70818;SDS011;58439;51.046;13.692;2022-11-11T09:27:53;17.65;;;6.20;;
70818;SDS011;58439;51.046;13.692;2022-11-11T09:30:44;11.83;;;5.83;;
70818;SDS011;58439;51.046;13.692;2022-11-11T09:33:30;14.50;;;5.97;;
70818;SDS011;58439;51.046;13.692;2022-11-11T09:36:16;15.70;;;5.97;;
70818;SDS011;58439;51.046;13.692;2022-11-11T09:39:04;13.45;;;6.22;;
70818;SDS011;58439;51.046;13.692;2022-11-11T09:48:07;17.77;;;6.25;;
70818;SDS011;58439;51.046;13.692;2022-11-11T09:51:44;10.27;;;5.50;;
70818;SDS011;58439;51.046;13.692;2022-11-11T09:54:40;13.07;;;5.10;;
70818;SDS011;58439;51.046;13.692;2022-11-11T09:57:53;14.18;;;5.40;;
70818;SDS011;58439;51.046;13.692;2022-11-11T10:00:45;13.05;;;5.10;;
70818;SDS011;58439;51.046;13.692;2022-11-11T10:03:43;12.43;;;5.75;;
70818;SDS011;58439;51.046;13.692;2022-11-11T10:06:36;12.35;;;5.15;;
70818;SDS011;58439;51.046;13.692;2022-11-11T10:09:34;15.05;;;6.60;;
70818;SDS011;58439;51.046;13.692;2022-11-11T10:12:48;16.83;;;6.47;;
70818;SDS011;58439;51.046;13.692;2022-11-11T10:15:46;16.20;;;6.07;;
70818;SDS011;58439;51.046;13.692;2022-11-11T10:22:12;17.92;;;5.88;;
70818;SDS011;58439;51.046;13.692;2022-11-11T10:25:17;12.57;;;6.03;;
70818;SDS011;58439;51.046;13.692;2022-11-11T10:31:54;12.85;;;6.13;;
70818;SDS011;58439;51.046;13.692;2022-11-11T10:35:17;12.18;;;5.68;;
70818;SDS011;58439;51.046;13.692;2022-11-11T10:41:32;18.15;;;5.78;;
70818;SDS011;58439;51.046;13.692;2022-11-11T10:44:26;24.02;;;6.93;;
70818;SDS011;58439;51.046;13.692;2022-11-11T10:50:22;14.38;;;5.68;;
70818;SDS011;58439;51.046;13.692;2022-11-11T10:53:30;14.75;;;6.05;;
70818;SDS011;58439;51.046;13.692;2022-11-11T10:56:51;17.27;;;6.78;;
70818;SDS011;58439;51.046;13.692;2022-11-11T10:59:49;15.80;;;6.47;;
70818;SDS011;58439;51.046;13.692;2022-11-11T11:03:14;17.75;;;6.13;;
70818;SDS011;58439;51.046;13.692;2022-11-11T11:09:18;13.60;;;5.32;;
70818;SDS011;58439;51.046;13.692;2022-11-11T11:12:31;12.65;;;5.97;;
70818;SDS011;58439;51.046;13.692;2022-11-11T11:17:03;14.75;;;5.38;;
70818;SDS011;58439;51.046;13.692;2022-11-11T11:21:07;13.55;;;5.90;;
70818;SDS011;58439;51.046;13.692;2022-11-11T11:28:56;15.32;;;6.22;;
70818;SDS011;58439;51.046;13.692;2022-11-11T11:31:54;14.00;;;6.03;;
70818;SDS011;58439;51.046;13.692;2022-11-11T11:34:46;15.25;;;5.70;;
70818;SDS011;58439;51.046;13.692;2022-11-11T11:37:47;11.07;;;5.65;;
70818;SDS011;58439;51.046;13.692;2022-11-11T11:43:38;17.93;;;8.27;;
70818;SDS011;58439;51.046;13.692;2022-11-11T11:46:39;16.38;;;6.18;;
70818;SDS011;58439;51.046;13.692;2022-11-11T11:53:01;11.35;;;5.65;;
70818;SDS011;58439;51.046;13.692;2022-11-11T11:56:22;12.40;;;5.75;;
70818;SDS011;58439;51.046;13.692;2022-11-11T12:31:56;18.30;;;6.07;;
70818;SDS011;58439;51.046;13.692;2022-11-11T13:03:22;12.18;;;5.57;;
70818;SDS011;58439;51.046;13.692;2022-11-11T13:06:46;18.52;;;5.75;;
70818;SDS011;58439;51.046;13.692;2022-11-11T13:17:22;16.23;;;6.40;;
70818;SDS011;58439;51.046;13.692;2022-11-11T13:24:17;13.63;;;6.22;;
70818;SDS011;58439;51.046;13.692;2022-11-11T13:31:05;12.15;;;6.40;;
70818;SDS011;58439;51.046;13.692;2022-11-11T13:38:53;15.65;;;6.60;;
70818;SDS011;58439;51.046;13.692;2022-11-11T13:43:02;13.57;;;7.00;;
70818;SDS011;58439;51.046;13.692;2022-11-11T13:51:37;16.80;;;7.38;;
70818;SDS011;58439;51.046;13.692;2022-11-11T13:55:50;15.35;;;7.30;;
70818;SDS011;58439;51.046;13.692;2022-11-11T13:59:23;12.02;;;6.32;;
70818;SDS011;58439;51.046;13.692;2022-11-11T14:07:51;14.80;;;6.10;;
70818;SDS011;58439;51.046;13.692;2022-11-11T14:35:57;17.83;;;7.50;;
70818;SDS011;58439;51.046;13.692;2022-11-11T14:39:34;17.35;;;7.38;;
70818;SDS011;58439;51.046;13.692;2022-11-11T14:42:42;21.13;;;8.20;;
70818;SDS011;58439;51.046;13.692;2022-11-11T14:52:00;18.17;;;8.50;;
70818;SDS011;58439;51.046;13.692;2022-11-11T14:55:07;20.88;;;8.43;;
70818;SDS011;58439;51.046;13.692;2022-11-11T14:58:32;24.33;;;8.80;;
70818;SDS011;58439;51.046;13.692;2022-11-11T15:06:56;19.42;;;9.02;;
70818;SDS011;58439;51.046;13.692;2022-11-11T15:09:55;22.98;;;9.63;;
70818;SDS011;58439;51.046;13.692;2022-11-11T15:38:27;21.13;;;9.93;;
70818;SDS011;58439;51.046;13.692;2022-11-11T15:41:20;29.70;;;10.55;;
70818;SDS011;58439;51.046;13.692;2022-11-11T15:48:29;26.65;;;10.73;;
70818;SDS011;58439;51.046;13.692;2022-11-11T15:51:29;27.35;;;11.45;;
70818;SDS011;58439;51.046;13.692;2022-11-11T15:59:45;28.02;;;12.05;;
70818;SDS011;58439;51.046;13.692;2022-11-11T16:03:43;23.98;;;10.50;;
70818;SDS011;58439;51.046;13.692;2022-11-11T16:07:56;29.85;;;11.15;;
70818;SDS011;58439;51.046;13.692;2022-11-11T16:12:23;29.42;;;11.25;;
70818;SDS011;58439;51.046;13.692;2022-11-11T16:38:04;27.48;;;11.38;;
70818;SDS011;58439;51.046;13.692;2022-11-11T16:55:59;32.50;;;12.88;;
70818;SDS011;58439;51.046;13.692;2022-11-11T16:58:55;28.98;;;12.75;;
70818;SDS011;58439;51.046;13.692;2022-11-11T17:01:51;31.07;;;14.87;;
70818;SDS011;58439;51.046;13.692;2022-11-11T17:04:50;34.05;;;14.82;;
70818;SDS011;58439;51.046;13.692;2022-11-11T17:07:42;33.55;;;14.45;;
70818;SDS011;58439;51.046;13.692;2022-11-11T17:10:29;36.28;;;13.30;;
70818;SDS011;58439;51.046;13.692;2022-11-11T17:13:25;30.13;;;12.48;;
70818;SDS011;58439;51.046;13.692;2022-11-11T17:20:49;29.70;;;11.80;;
70818;SDS011;58439;51.046;13.692;2022-11-11T17:25:26;26.35;;;11.18;;
70818;SDS011;58439;51.046;13.692;2022-11-11T17:32:39;29.67;;;12.40;;
70818;SDS011;58439;51.046;13.692;2022-11-11T17:35:36;34.35;;;12.07;;
70818;SDS011;58439;51.046;13.692;2022-11-11T17:38:50;28.88;;;12.75;;
70818;SDS011;58439;51.046;13.692;2022-11-11T17:41:46;30.38;;;13.02;;
70818;SDS011;58439;51.046;13.692;2022-11-11T17:44:49;33.40;;;13.18;;
70818;SDS011;58439;51.046;13.692;2022-11-11T17:47:43;33.17;;;14.10;;
70818;SDS011;58439;51.046;13.692;2022-11-11T17:50:46;36.27;;;13.63;;
70818;SDS011;58439;51.046;13.692;2022-11-11T17:58:03;39.67;;;17.67;;
70818;SDS011;58439;51.046;13.692;2022-11-11T18:00:49;33.00;;;14.60;;
70818;SDS011;58439;51.046;13.692;2022-11-11T18:03:35;37.70;;;16.42;;
70818;SDS011;58439;51.046;13.692;2022-11-11T18:06:22;33.42;;;17.38;;
70818;SDS011;58439;51.046;13.692;2022-11-11T18:09:10;35.85;;;17.65;;
70818;SDS011;58439;51.046;13.692;2022-11-11T18:11:56;33.25;;;16.42;;
70818;SDS011;58439;51.046;13.692;2022-11-11T18:14:43;37.20;;;18.27;;
70818;SDS011;58439;51.046;13.692;2022-11-11T18:17:29;45.03;;;20.48;;
70818;SDS011;58439;51.046;13.692;2022-11-11T18:20:15;37.53;;;20.25;;
70818;SDS011;58439;51.046;13.692;2022-11-11T18:23:02;37.83;;;17.48;;
70818;SDS011;58439;51.046;13.692;2022-11-11T18:25:48;40.95;;;18.65;;
70818;SDS011;58439;51.046;13.692;2022-11-11T18:28:42;39.95;;;18.73;;
70818;SDS011;58439;51.046;13.692;2022-11-11T18:32:14;47.25;;;21.75;;
70818;SDS011;58439;51.046;13.692;2022-11-11T18:52:21;64.70;;;24.67;;
70818;SDS011;58439;51.046;13.692;2022-11-11T18:55:09;48.80;;;22.83;;
70818;SDS011;58439;51.046;13.692;2022-11-11T18:57:55;56.30;;;26.17;;
70818;SDS011;58439;51.046;13.692;2022-11-11T19:00:41;55.90;;;25.77;;
70818;SDS011;58439;51.046;13.692;2022-11-11T19:03:31;45.75;;;22.48;;
70818;SDS011;58439;51.046;13.692;2022-11-11T19:06:18;50.80;;;22.10;;
70818;SDS011;58439;51.046;13.692;2022-11-11T19:09:06;47.17;;;22.25;;
70818;SDS011;58439;51.046;13.692;2022-11-11T19:11:55;43.58;;;20.48;;
70818;SDS011;58439;51.046;13.692;2022-11-11T19:14:41;46.80;;;22.52;;
70818;SDS011;58439;51.046;13.692;2022-11-11T19:17:27;41.13;;;19.27;;
70818;SDS011;58439;51.046;13.692;2022-11-11T19:20:13;43.92;;;19.48;;
70818;SDS011;58439;51.046;13.692;2022-11-11T19:23:16;47.00;;;19.95;;
70818;SDS011;58439;51.046;13.692;2022-11-11T19:26:16;37.25;;;17.15;;
70818;SDS011;58439;51.046;13.692;2022-11-11T19:29:04;35.75;;;16.33;;
70818;SDS011;58439;51.046;13.692;2022-11-11T19:31:50;34.30;;;16.63;;
70818;SDS011;58439;51.046;13.692;2022-11-11T19:34:36;35.10;;;16.40;;
70818;SDS011;58439;51.046;13.692;2022-11-11T19:37:24;41.45;;;17.52;;
70818;SDS011;58439;51.046;13.692;2022-11-11T19:40:10;39.55;;;16.98;;
70818;SDS011;58439;51.046;13.692;2022-11-11T19:42:57;37.70;;;17.42;;
70818;SDS011;58439;51.046;13.692;2022-11-11T19:46:10;42.60;;;17.25;;
70818;SDS011;58439;51.046;13.692;2022-11-11T19:49:39;40.05;;;19.13;;
70818;SDS011;58439;51.046;13.692;2022-11-11T19:52:25;43.88;;;18.63;;
70818;SDS011;58439;51.046;13.692;2022-11-11T19:55:26;36.35;;;17.85;;
70818;SDS011;58439;51.046;13.692;2022-11-11T19:58:26;40.35;;;19.23;;
70818;SDS011;58439;51.046;13.692;2022-11-11T20:04:09;47.40;;;20.25;;
70818;SDS011;58439;51.046;13.692;2022-11-11T20:06:55;42.42;;;19.45;;
70818;SDS011;58439;51.046;13.692;2022-11-11T20:09:42;49.88;;;20.00;;
70818;SDS011;58439;51.046;13.692;2022-11-11T20:12:28;41.15;;;18.92;;
70818;SDS011;58439;51.046;13.692;2022-11-11T20:15:14;44.72;;;21.10;;
70818;SDS011;58439;51.046;13.692;2022-11-11T20:18:00;37.85;;;19.55;;
70818;SDS011;58439;51.046;13.692;2022-11-11T20:20:49;44.00;;;20.02;;
70818;SDS011;58439;51.046;13.692;2022-11-11T20:23:36;39.65;;;20.20;;
70818;SDS011;58439;51.046;13.692;2022-11-11T20:26:24;36.10;;;19.30;;
70818;SDS011;58439;51.046;13.692;2022-11-11T20:29:11;46.78;;;21.75;;
70818;SDS011;58439;51.046;13.692;2022-11-11T20:31:57;46.03;;;20.13;;
70818;SDS011;58439;51.046;13.692;2022-11-11T20:34:43;35.58;;;17.35;;
70818;SDS011;58439;51.046;13.692;2022-11-11T20:37:29;46.45;;;21.67;;
70818;SDS011;58439;51.046;13.692;2022-11-11T20:40:16;41.00;;;18.60;;
70818;SDS011;58439;51.046;13.692;2022-11-11T20:43:03;38.28;;;18.48;;
70818;SDS011;58439;51.046;13.692;2022-11-11T20:45:49;37.15;;;18.60;;
70818;SDS011;58439;51.046;13.692;2022-11-11T20:48:36;34.38;;;18.13;;
70818;SDS011;58439;51.046;13.692;2022-11-11T20:51:25;38.35;;;18.65;;
70818;SDS011;58439;51.046;13.692;2022-11-11T20:54:12;43.78;;;18.15;;
70818;SDS011;58439;51.046;13.692;2022-11-11T20:56:58;43.53;;;20.00;;
70818;SDS011;58439;51.046;13.692;2022-11-11T20:59:44;39.85;;;20.13;;
70818;SDS011;58439;51.046;13.692;2022-11-11T21:02:30;45.20;;;19.00;;
70818;SDS011;58439;51.046;13.692;2022-11-11T21:05:16;42.22;;;19.27;;
70818;SDS011;58439;51.046;13.692;2022-11-11T21:08:02;41.35;;;20.48;;
70818;SDS011;58439;51.046;13.692;2022-11-11T21:10:49;43.75;;;22.35;;
70818;SDS011;58439;51.046;13.692;2022-11-11T21:14:01;57.40;;;23.77;;
70818;SDS011;58439;51.046;13.692;2022-11-11T21:16:48;50.42;;;21.15;;
70818;SDS011;58439;51.046;13.692;2022-11-11T21:19:34;49.00;;;21.13;;
70818;SDS011;58439;51.046;13.692;2022-11-11T21:22:21;46.55;;;21.67;;
70818;SDS011;58439;51.046;13.692;2022-11-11T21:25:07;42.30;;;21.00;;
70818;SDS011;58439;51.046;13.692;2022-11-11T21:27:53;45.85;;;20.52;;
70818;SDS011;58439;51.046;13.692;2022-11-11T21:30:57;45.25;;;21.95;;
70818;SDS011;58439;51.046;13.692;2022-11-11T21:34:18;44.88;;;19.70;;
70818;SDS011;58439;51.046;13.692;2022-11-11T21:37:04;47.28;;;22.40;;
70818;SDS011;58439;51.046;13.692;2022-11-11T21:39:50;50.83;;;22.38;;
70818;SDS011;58439;51.046;13.692;2022-11-11T21:42:36;51.30;;;24.42;;
70818;SDS011;58439;51.046;13.692;2022-11-11T21:45:22;51.30;;;24.15;;
70818;SDS011;58439;51.046;13.692;2022-11-11T21:48:08;47.55;;;23.27;;
70818;SDS011;58439;51.046;13.692;2022-11-11T21:51:01;45.40;;;23.35;;
70818;SDS011;58439;51.046;13.692;2022-11-11T21:53:54;49.30;;;22.83;;
70818;SDS011;58439;51.046;13.692;2022-11-11T21:56:47;50.45;;;22.60;;
70818;SDS011;58439;51.046;13.692;2022-11-11T21:59:34;45.67;;;22.35;;
70818;SDS011;58439;51.046;13.692;2022-11-11T22:02:21;52.28;;;23.88;;
70818;SDS011;58439;51.046;13.692;2022-11-11T22:05:07;50.42;;;22.30;;
70818;SDS011;58439;51.046;13.692;2022-11-11T22:07:57;46.22;;;22.30;;
70818;SDS011;58439;51.046;13.692;2022-11-11T22:10:43;45.85;;;19.45;;
70818;SDS011;58439;51.046;13.692;2022-11-11T22:13:29;40.92;;;19.27;;
70818;SDS011;58439;51.046;13.692;2022-11-11T22:16:19;40.13;;;18.95;;
70818;SDS011;58439;51.046;13.692;2022-11-11T22:19:12;41.13;;;19.38;;
70818;SDS011;58439;51.046;13.692;2022-11-11T22:22:01;42.90;;;19.27;;
70818;SDS011;58439;51.046;13.692;2022-11-11T22:24:48;45.10;;;19.00;;
70818;SDS011;58439;51.046;13.692;2022-11-11T22:27:34;39.92;;;18.52;;
70818;SDS011;58439;51.046;13.692;2022-11-11T22:30:20;35.72;;;16.73;;
70818;SDS011;58439;51.046;13.692;2022-11-11T22:33:17;42.95;;;18.73;;
70818;SDS011;58439;51.046;13.692;2022-11-11T22:36:16;32.47;;;16.02;;
70818;SDS011;58439;51.046;13.692;2022-11-11T22:39:11;31.50;;;16.98;;
70818;SDS011;58439;51.046;13.692;2022-11-11T22:41:58;36.13;;;15.27;;
70818;SDS011;58439;51.046;13.692;2022-11-11T22:44:55;34.05;;;15.50;;
70818;SDS011;58439;51.046;13.692;2022-11-11T22:48:06;34.70;;;15.30;;
70818;SDS011;58439;51.046;13.692;2022-11-11T22:50:53;42.40;;;16.23;;
70818;SDS011;58439;51.046;13.692;2022-11-11T22:57:04;28.27;;;14.05;;
70818;SDS011;58439;51.046;13.692;2022-11-11T23:00:09;31.75;;;14.38;;
70818;SDS011;58439;51.046;13.692;2022-11-11T23:03:33;29.70;;;13.18;;
70818;SDS011;58439;51.046;13.692;2022-11-11T23:07:03;27.40;;;13.77;;
70818;SDS011;58439;51.046;13.692;2022-11-11T23:09:59;31.55;;;14.15;;
70818;SDS011;58439;51.046;13.692;2022-11-11T23:12:55;26.63;;;12.40;;
70818;SDS011;58439;51.046;13.692;2022-11-11T23:16:27;31.20;;;14.70;;
70818;SDS011;58439;51.046;13.692;2022-11-11T23:19:14;27.25;;;12.75;;
70818;SDS011;58439;51.046;13.692;2022-11-11T23:22:01;27.50;;;12.70;;
70818;SDS011;58439;51.046;13.692;2022-11-11T23:24:46;33.25;;;14.45;;
70818;SDS011;58439;51.046;13.692;2022-11-11T23:27:33;24.08;;;12.25;;
70818;SDS011;58439;51.046;13.692;2022-11-11T23:30:19;31.40;;;14.77;;
